Terminal Aerodrome Forecast
Issued by NWS

Home | Current Version | Previous Version | Text Only | Print | Product List | Glossary On
Versions: 1 2 3 4 5 6 7 8 9 10 11 12 13 14 15 16 17 18 19 20 21 22 23 24 25 26 27
401
FTUS44 KBMX 011726
TAFTOI
TAF
KTOI 011726Z 0118/0218 21010G18KT P6SM BKN035
     FM012100 22012KT P6SM TSRA BKN050CB
     FM020500 32012KT P6SM VCSH OVC025
     FM020900 35014KT P6SM OVC100
     FM021300 01011KT P6SM BKN250=

USA.gov is the U.S. government's official web portal to all federal, state and local government web resources and services.